Time;durP1;ratioP1;P1;durP2;ratioP2;P2;SDS_P1;SDS_P2;PMS_P1;PMS_P2;Temp;Humidity;BMP_temperature;BMP_pressure;BME280_temperature;BME280_humidity;BME280_pressure;Samples;Min_cycle;Max_cycle;Signal;HPM_P1;HPM_P2
2021/12/13 00:01:24;;;;;;;5.73;3.50;;;;;;;;;;5073316;28;20431;-68
2021/12/13 00:03:57;;;;;;;4.50;4.10;;;;;;;;;;5073207;28;20416;-68
2021/12/13 00:06:25;;;;;;;7.00;4.00;;;;;;;;;;5073123;28;20409;-68
2021/12/13 00:08:54;;;;;;;7.57;3.97;;;;;;;;;;5073181;28;20875;-67
2021/12/13 00:11:22;;;;;;;5.00;4.50;;;;;;;;;;5071942;28;20484;-67
2021/12/13 00:13:50;;;;;;;5.77;4.27;;;;;;;;;;5073003;28;20502;-68
2021/12/13 00:16:22;;;;;;;9.20;4.73;;;;;;;;;;5073215;28;20416;-68
2021/12/13 00:18:48;;;;;;;6.30;3.60;;;;;;;;;;5073098;28;20460;-68
2021/12/13 00:21:21;;;;;;;4.10;3.53;;;;;;;;;;5072539;28;20863;-69
2021/12/13 00:23:54;;;;;;;8.03;3.97;;;;;;;;;;5072984;28;20401;-69
2021/12/13 00:26:25;;;;;;;4.43;3.90;;;;;;;;;;5072982;28;20461;-70
2021/12/13 00:28:51;;;;;;;4.30;3.90;;;;;;;;;;5072985;28;20412;-68
2021/12/13 00:31:32;;;;;;;5.00;3.70;;;;;;;;;;5073085;28;20411;-70
2021/12/13 00:34:02;;;;;;;6.97;4.73;;;;;;;;;;5073002;28;20402;-70
2021/12/13 00:36:32;;;;;;;5.60;4.57;;;;;;;;;;5071682;28;20492;-70
2021/12/13 00:39:21;;;;;;;6.83;4.30;;;;;;;;;;5072833;28;20507;-70
2021/12/13 00:41:49;;;;;;;6.83;4.07;;;;;;;;;;5062530;28;20991;-68
2021/12/13 00:44:35;;;;;;;5.90;4.90;;;;;;;;;;5072885;28;20409;-68
2021/12/13 00:47:06;;;;;;;5.37;4.10;;;;;;;;;;5072859;28;20408;-68
2021/12/13 00:49:33;;;;;;;9.37;4.67;;;;;;;;;;5072896;28;20419;-70
2021/12/13 00:51:59;;;;;;;7.27;4.33;;;;;;;;;;5072620;28;20461;-71
2021/12/13 00:54:28;;;;;;;5.27;4.10;;;;;;;;;;5072860;28;20506;-70
2021/12/13 00:57:08;;;;;;;7.07;4.90;;;;;;;;;;5072665;28;20460;-70
2021/12/13 00:59:39;;;;;;;6.30;4.73;;;;;;;;;;5072954;28;20409;-71
2021/12/13 01:02:07;;;;;;;5.97;4.13;;;;;;;;;;5072946;28;20493;-71
2021/12/13 01:04:52;;;;;;;8.50;4.93;;;;;;;;;;5072938;28;20405;-70
2021/12/13 01:07:33;;;;;;;5.97;3.90;;;;;;;;;;5072971;28;20400;-68
2021/12/13 01:10:18;;;;;;;8.60;4.73;;;;;;;;;;5073095;28;20484;-69
2021/12/13 01:12:45;;;;;;;8.93;4.03;;;;;;;;;;5073070;28;20477;-69
2021/12/13 01:15:15;;;;;;;7.23;4.33;;;;;;;;;;5073172;28;20459;-71
2021/12/13 01:17:58;;;;;;;7.50;4.40;;;;;;;;;;5071876;28;20456;-70
2021/12/13 01:20:31;;;;;;;8.90;4.90;;;;;;;;;;5073120;28;20406;-70
2021/12/13 01:23:03;;;;;;;4.80;3.93;;;;;;;;;;5071899;28;20445;-70
2021/12/13 01:25:44;;;;;;;8.20;4.93;;;;;;;;;;5072545;28;20409;-70
2021/12/13 01:28:10;;;;;;;9.40;4.30;;;;;;;;;;5072536;28;20498;-70
2021/12/13 01:30:39;;;;;;;6.40;4.30;;;;;;;;;;5072417;28;20446;-70
2021/12/13 01:33:07;;;;;;;6.73;4.20;;;;;;;;;;5073959;28;20392;-68
2021/12/13 01:35:35;;;;;;;9.27;4.60;;;;;;;;;;5076069;28;20401;-69
2021/12/13 01:38:06;;;;;;;8.37;4.80;;;;;;;;;;5075838;28;20503;-68
2021/12/13 01:40:34;;;;;;;8.80;4.53;;;;;;;;;;5075994;28;20398;-70
2021/12/13 01:43:07;;;;;;;8.47;4.47;;;;;;;;;;5075646;28;20420;-69
2021/12/13 01:45:35;;;;;;;7.50;4.90;;;;;;;;;;5075724;28;20393;-68
2021/12/13 01:48:01;;;;;;;7.00;4.80;;;;;;;;;;5075705;28;20862;-69
2021/12/13 01:50:31;;;;;;;9.90;5.10;;;;;;;;;;5075703;28;20407;-70
2021/12/13 01:53:00;;;;;;;7.03;4.67;;;;;;;;;;5075794;28;20397;-69
2021/12/13 01:55:36;;;;;;;6.27;4.40;;;;;;;;;;5075391;28;20542;-69
2021/12/13 02:01:10;;;;;;;7.23;5.03;;;;;;;;;;5075663;28;20402;-71
2021/12/13 02:03:55;;;;;;;6.17;4.43;;;;;;;;;;5075628;28;20400;-70
2021/12/13 02:06:23;;;;;;;6.00;4.50;;;;;;;;;;5075459;28;20407;-68
2021/12/13 02:08:52;;;;;;;5.30;4.20;;;;;;;;;;5075314;28;20400;-70
2021/12/13 02:11:18;;;;;;;7.10;4.40;;;;;;;;;;5075374;28;20388;-70
2021/12/13 02:14:03;;;;;;;9.20;4.27;;;;;;;;;;5075078;28;20424;-70
2021/12/13 02:19:21;;;;;;;10.13;6.00;;;;;;;;;;5075243;28;20416;-68
2021/12/13 02:21:49;;;;;;;7.47;4.63;;;;;;;;;;5075101;28;20398;-68
2021/12/13 02:24:16;;;;;;;9.60;5.33;;;;;;;;;;5075000;28;20409;-68
2021/12/13 02:26:44;;;;;;;6.30;4.30;;;;;;;;;;5074916;28;20498;-70
2021/12/13 02:29:15;;;;;;;7.13;4.40;;;;;;;;;;5073733;28;20421;-70
2021/12/13 02:31:41;;;;;;;9.33;4.77;;;;;;;;;;5073532;28;20456;-70
2021/12/13 02:34:09;;;;;;;8.57;4.50;;;;;;;;;;5074887;28;20437;-70
2021/12/13 02:36:39;;;;;;;5.77;5.17;;;;;;;;;;5074945;28;20464;-70
2021/12/13 02:39:07;;;;;;;4.60;3.83;;;;;;;;;;5074999;28;20476;-70
2021/12/13 02:41:33;;;;;;;5.77;5.00;;;;;;;;;;5073529;28;20464;-70
2021/12/13 02:44:04;;;;;;;6.33;5.17;;;;;;;;;;5074379;28;20408;-69
2021/12/13 02:46:31;;;;;;;6.27;4.33;;;;;;;;;;5074994;28;20475;-70
2021/12/13 02:48:59;;;;;;;9.00;4.63;;;;;;;;;;5074877;28;20772;-70
2021/12/13 02:51:28;;;;;;;3.80;3.40;;;;;;;;;;5073653;28;20411;-70
2021/12/13 02:54:00;;;;;;;8.00;4.80;;;;;;;;;;5075312;28;20476;-69
2021/12/13 02:56:28;;;;;;;5.43;3.90;;;;;;;;;;5074785;28;20566;-69
2021/12/13 02:58:56;;;;;;;5.50;4.67;;;;;;;;;;5074919;28;20464;-68
2021/12/13 03:01:27;;;;;;;7.60;4.23;;;;;;;;;;5073743;28;20412;-70
2021/12/13 03:03:55;;;;;;;7.50;4.53;;;;;;;;;;5075073;28;20419;-70
2021/12/13 03:06:23;;;;;;;9.10;4.57;;;;;;;;;;5074092;28;20416;-68
2021/12/13 03:08:51;;;;;;;5.90;4.80;;;;;;;;;;5074177;28;20451;-70
2021/12/13 03:11:24;;;;;;;5.60;4.23;;;;;;;;;;5074146;28;20412;-70
2021/12/13 03:14:01;;;;;;;7.20;5.20;;;;;;;;;;5074033;28;20420;-69
2021/12/13 03:16:29;;;;;;;7.70;5.20;;;;;;;;;;5073978;28;20418;-69
2021/12/13 03:19:02;;;;;;;8.93;4.83;;;;;;;;;;5073973;28;20553;-69
2021/12/13 03:21:46;;;;;;;7.10;4.90;;;;;;;;;;5073946;28;20408;-70
2021/12/13 03:24:51;;;;;;;9.27;5.73;;;;;;;;;;5072655;28;20412;-68
2021/12/13 03:27:26;;;;;;;5.70;4.47;;;;;;;;;;4992333;28;20915;-70
2021/12/13 03:30:00;;;;;;;6.60;4.90;;;;;;;;;;4992421;28;20454;-70
2021/12/13 03:32:35;;;;;;;6.10;5.13;;;;;;;;;;5040666;28;20427;-70
2021/12/13 03:35:03;;;;;;;7.70;5.10;;;;;;;;;;5073650;28;20405;-70
2021/12/13 03:37:30;;;;;;;12.10;5.47;;;;;;;;;;5073570;28;20474;-69
2021/12/13 03:39:59;;;;;;;7.20;5.80;;;;;;;;;;5073618;28;20415;-67
2021/12/13 03:42:31;;;;;;;9.60;5.27;;;;;;;;;;5073620;28;20441;-70
2021/12/13 03:45:00;;;;;;;7.93;5.67;;;;;;;;;;5073442;28;20412;-70
2021/12/13 03:47:28;;;;;;;7.50;4.83;;;;;;;;;;5073562;28;20400;-70
2021/12/13 03:49:56;;;;;;;7.97;5.63;;;;;;;;;;5073664;28;20408;-69
2021/12/13 03:52:24;;;;;;;7.23;5.10;;;;;;;;;;5073443;28;20388;-69
2021/12/13 03:54:52;;;;;;;7.07;5.10;;;;;;;;;;5072631;28;20797;-69
2021/12/13 03:57:19;;;;;;;10.33;5.73;;;;;;;;;;5073197;28;20468;-69
2021/12/13 03:59:46;;;;;;;7.30;5.30;;;;;;;;;;5073391;28;20451;-71
2021/12/13 04:02:15;;;;;;;9.70;6.30;;;;;;;;;;5073275;28;20895;-70
2021/12/13 04:04:43;;;;;;;9.90;5.77;;;;;;;;;;5073381;28;20409;-70
2021/12/13 04:07:12;;;;;;;7.50;5.50;;;;;;;;;;5073158;28;20493;-70
2021/12/13 04:09:39;;;;;;;7.97;5.13;;;;;;;;;;5072916;28;20412;-71
2021/12/13 04:12:06;;;;;;;6.23;5.00;;;;;;;;;;5073193;28;20421;-69
2021/12/13 04:14:37;;;;;;;8.10;6.07;;;;;;;;;;5073102;28;20471;-68
2021/12/13 04:17:19;;;;;;;12.00;5.60;;;;;;;;;;5073336;28;20405;-71
2021/12/13 04:19:56;;;;;;;7.23;5.40;;;;;;;;;;5073409;28;20396;-70
2021/12/13 04:22:25;;;;;;;8.43;5.03;;;;;;;;;;5072046;28;20463;-69
2021/12/13 04:24:54;;;;;;;6.37;5.27;;;;;;;;;;5073285;28;20466;-70
2021/12/13 04:27:29;;;;;;;10.10;5.80;;;;;;;;;;5073481;28;20436;-70
2021/12/13 04:29:57;;;;;;;10.27;5.43;;;;;;;;;;5073544;28;20399;-70
2021/12/13 04:32:49;;;;;;;7.63;5.93;;;;;;;;;;5072341;28;20768;-71
2021/12/13 04:35:15;;;;;;;8.70;5.77;;;;;;;;;;5069770;28;20885;-69
2021/12/13 04:37:50;;;;;;;7.70;5.50;;;;;;;;;;5072993;28;20937;-70
2021/12/13 04:40:18;;;;;;;5.67;5.13;;;;;;;;;;5073492;28;20423;-71
2021/12/13 04:42:44;;;;;;;5.80;5.20;;;;;;;;;;5073301;28;20408;-71
2021/12/13 04:45:16;;;;;;;7.60;5.97;;;;;;;;;;5073116;28;20389;-68
2021/12/13 04:48:01;;;;;;;8.40;5.30;;;;;;;;;;5073078;28;20875;-71
2021/12/13 04:50:29;;;;;;;9.20;5.87;;;;;;;;;;5072841;28;20404;-71
2021/12/13 04:52:55;;;;;;;8.03;5.57;;;;;;;;;;5072834;28;20389;-70
2021/12/13 04:55:24;;;;;;;7.03;5.63;;;;;;;;;;5072588;28;20455;-70
2021/12/13 04:57:51;;;;;;;9.63;5.20;;;;;;;;;;5072696;28;20468;-69
2021/12/13 05:00:19;;;;;;;8.53;6.40;;;;;;;;;;5072759;28;20480;-70
2021/12/13 05:02:47;;;;;;;7.13;5.20;;;;;;;;;;5072769;28;20868;-70
2021/12/13 05:05:13;;;;;;;7.70;6.07;;;;;;;;;;5072820;28;20401;-69
2021/12/13 05:07:41;;;;;;;8.47;5.77;;;;;;;;;;5073974;28;20421;-69
2021/12/13 05:10:07;;;;;;;6.83;5.67;;;;;;;;;;5076466;28;20413;-70
2021/12/13 05:12:34;;;;;;;6.47;5.67;;;;;;;;;;5075137;28;20432;-70
2021/12/13 05:15:02;;;;;;;7.60;5.87;;;;;;;;;;5074992;28;20893;-70
2021/12/13 05:17:36;;;;;;;6.97;5.53;;;;;;;;;;5076322;28;20448;-69
2021/12/13 05:20:11;;;;;;;8.67;5.80;;;;;;;;;;5076311;28;20440;-69
2021/12/13 05:22:48;;;;;;;6.60;5.40;;;;;;;;;;5075992;28;20396;-70
2021/12/13 05:25:20;;;;;;;6.60;5.47;;;;;;;;;;5074925;28;20467;-70
2021/12/13 05:27:46;;;;;;;6.70;4.83;;;;;;;;;;5076156;28;20463;-69
2021/12/13 05:30:19;;;;;;;10.60;6.00;;;;;;;;;;5075919;28;20420;-68
2021/12/13 05:32:47;;;;;;;7.57;5.37;;;;;;;;;;5074627;28;20461;-70
2021/12/13 05:35:16;;;;;;;5.67;5.00;;;;;;;;;;5076009;28;20892;-70
2021/12/13 05:37:45;;;;;;;8.53;6.13;;;;;;;;;;5075949;28;20471;-68
2021/12/13 05:40:15;;;;;;;6.23;4.90;;;;;;;;;;5075967;28;20408;-70
2021/12/13 05:42:42;;;;;;;6.40;5.23;;;;;;;;;;5075717;28;20432;-70
2021/12/13 05:45:10;;;;;;;6.30;5.53;;;;;;;;;;5075863;28;20470;-70
2021/12/13 05:47:36;;;;;;;6.03;5.40;;;;;;;;;;5075766;28;20502;-69
2021/12/13 05:50:05;;;;;;;8.43;5.33;;;;;;;;;;5075567;28;20760;-71
2021/12/13 05:52:33;;;;;;;7.53;5.10;;;;;;;;;;5075758;28;20724;-71
2021/12/13 05:55:02;;;;;;;6.03;5.37;;;;;;;;;;5075527;28;20407;-71
2021/12/13 05:57:29;;;;;;;9.27;5.60;;;;;;;;;;5075714;28;20479;-70
2021/12/13 05:59:57;;;;;;;7.10;5.80;;;;;;;;;;5075679;28;20491;-71
2021/12/13 06:02:42;;;;;;;7.40;5.67;;;;;;;;;;5075659;28;20562;-69
2021/12/13 06:05:19;;;;;;;5.87;5.17;;;;;;;;;;5074664;28;21111;-71
2021/12/13 06:07:53;;;;;;;10.27;5.57;;;;;;;;;;5075814;28;20403;-71
2021/12/13 06:10:21;;;;;;;7.47;5.40;;;;;;;;;;5075962;28;20446;-70
2021/12/13 06:12:50;;;;;;;9.93;6.73;;;;;;;;;;5075720;28;20816;-70
2021/12/13 06:15:16;;;;;;;9.00;7.13;;;;;;;;;;5075867;28;20540;-69
2021/12/13 06:17:48;;;;;;;6.87;5.30;;;;;;;;;;5074256;28;20550;-69
2021/12/13 06:20:16;;;;;;;8.20;5.90;;;;;;;;;;5075333;28;20412;-70
2021/12/13 06:22:43;;;;;;;6.77;5.57;;;;;;;;;;5075405;28;20414;-69
2021/12/13 06:25:12;;;;;;;8.27;5.50;;;;;;;;;;5075725;28;20441;-70
2021/12/13 06:27:43;;;;;;;5.63;5.10;;;;;;;;;;5073641;28;20405;-70
2021/12/13 06:30:18;;;;;;;7.40;5.80;;;;;;;;;;5073554;28;20428;-70
2021/12/13 06:32:51;;;;;;;8.30;5.93;;;;;;;;;;5074769;28;20918;-70
2021/12/13 06:35:32;;;;;;;7.20;5.20;;;;;;;;;;5074911;28;20421;-70
2021/12/13 06:38:18;;;;;;;8.00;6.47;;;;;;;;;;5074698;28;20468;-69
2021/12/13 06:40:47;;;;;;;10.53;6.80;;;;;;;;;;5074704;28;20485;-69
2021/12/13 06:43:25;;;;;;;6.93;5.60;;;;;;;;;;5074690;28;20409;-69
2021/12/13 06:45:51;;;;;;;10.63;5.73;;;;;;;;;;5074699;28;20866;-69
2021/12/13 06:48:17;;;;;;;11.40;6.63;;;;;;;;;;5074685;28;20457;-70
2021/12/13 06:50:47;;;;;;;7.90;5.60;;;;;;;;;;5073327;28;20401;-71
2021/12/13 06:53:13;;;;;;;9.70;6.10;;;;;;;;;;5074403;28;20408;-69
2021/12/13 06:55:39;;;;;;;8.27;5.73;;;;;;;;;;5074153;28;20822;-70
2021/12/13 06:58:12;;;;;;;10.10;5.70;;;;;;;;;;5074343;28;20475;-68
2021/12/13 07:00:38;;;;;;;11.00;6.00;;;;;;;;;;5074346;28;20400;-68
2021/12/13 07:03:07;;;;;;;7.70;6.23;;;;;;;;;;5074374;28;20408;-70
2021/12/13 07:05:40;;;;;;;11.87;6.27;;;;;;;;;;5073224;28;20413;-69
2021/12/13 07:08:16;;;;;;;11.70;7.20;;;;;;;;;;5074763;28;20735;-70
2021/12/13 07:10:47;;;;;;;8.93;6.73;;;;;;;;;;5074203;28;20463;-71
2021/12/13 07:13:24;;;;;;;11.97;6.40;;;;;;;;;;5074125;28;20413;-70
2021/12/13 07:15:56;;;;;;;11.37;6.63;;;;;;;;;;5074278;28;20415;-71
2021/12/13 07:18:29;;;;;;;8.60;5.90;;;;;;;;;;5074136;28;20927;-70
2021/12/13 07:21:02;;;;;;;11.17;7.40;;;;;;;;;;5074198;28;20413;-71
2021/12/13 07:23:29;;;;;;;8.80;6.93;;;;;;;;;;5073883;28;20779;-69
2021/12/13 07:25:55;;;;;;;10.70;6.67;;;;;;;;;;5074074;28;20409;-69
2021/12/13 07:28:30;;;;;;;14.20;7.93;;;;;;;;;;5073963;28;20401;-68
2021/12/13 07:30:56;;;;;;;9.93;6.60;;;;;;;;;;5073712;28;20880;-68
2021/12/13 07:33:32;;;;;;;9.97;6.50;;;;;;;;;;5073641;28;20393;-72
2021/12/13 07:35:58;;;;;;;13.40;8.90;;;;;;;;;;5073624;28;20875;-68
2021/12/13 07:38:26;;;;;;;13.80;9.03;;;;;;;;;;5073559;28;20467;-71
2021/12/13 07:40:54;;;;;;;12.20;8.10;;;;;;;;;;5073671;28;20413;-70
2021/12/13 07:43:32;;;;;;;14.80;8.90;;;;;;;;;;5073473;28;20435;-71
2021/12/13 07:46:05;;;;;;;10.10;7.70;;;;;;;;;;5073693;28;20412;-69
2021/12/13 07:48:55;;;;;;;12.57;7.70;;;;;;;;;;5072268;28;20430;-71
2021/12/13 07:51:46;;;;;;;12.23;7.37;;;;;;;;;;5063457;28;20404;-70
2021/12/13 07:54:16;;;;;;;12.60;7.63;;;;;;;;;;5070009;28;20444;-70
2021/12/13 07:56:51;;;;;;;15.40;8.07;;;;;;;;;;5073477;28;20966;-69
2021/12/13 07:59:24;;;;;;;14.07;7.70;;;;;;;;;;5073359;28;20471;-70
2021/12/13 08:01:58;;;;;;;11.77;7.77;;;;;;;;;;5073311;28;20447;-68
2021/12/13 08:04:43;;;;;;;12.07;8.17;;;;;;;;;;5073192;28;20500;-70
2021/12/13 08:07:11;;;;;;;13.03;7.80;;;;;;;;;;5073370;28;20407;-68
2021/12/13 08:09:45;;;;;;;12.33;7.67;;;;;;;;;;5071761;28;20451;-68
2021/12/13 08:12:40;;;;;;;11.80;8.00;;;;;;;;;;5073056;28;20428;-68
2021/12/13 08:15:12;;;;;;;11.63;7.60;;;;;;;;;;5056203;28;20432;-69
2021/12/13 08:17:58;;;;;;;19.37;7.83;;;;;;;;;;5073148;28;20970;-69
2021/12/13 08:20:28;;;;;;;12.80;8.40;;;;;;;;;;5073207;28;20406;-68
2021/12/13 08:22:55;;;;;;;12.93;9.23;;;;;;;;;;5073103;28;20393;-68
2021/12/13 08:25:23;;;;;;;13.43;8.13;;;;;;;;;;5073108;28;20408;-68
2021/12/13 08:27:52;;;;;;;13.77;9.10;;;;;;;;;;5071704;28;20409;-69
2021/12/13 08:30:21;;;;;;;13.70;9.00;;;;;;;;;;5072893;28;20408;-68
2021/12/13 08:32:58;;;;;;;13.00;8.63;;;;;;;;;;5072779;28;20872;-70
2021/12/13 08:35:24;;;;;;;14.57;8.77;;;;;;;;;;5071769;28;20523;-72
2021/12/13 08:37:59;;;;;;;15.70;9.30;;;;;;;;;;5072778;28;20456;-71
2021/12/13 08:40:27;;;;;;;13.40;9.27;;;;;;;;;;5073027;28;20412;-70
2021/12/13 08:42:54;;;;;;;10.73;8.43;;;;;;;;;;5075749;28;20432;-71
2021/12/13 08:45:32;;;;;;;19.37;9.20;;;;;;;;;;5075751;28;20427;-71
2021/12/13 08:48:04;;;;;;;16.13;8.30;;;;;;;;;;5076916;28;20404;-71
2021/12/13 08:50:33;;;;;;;19.47;9.70;;;;;;;;;;5076865;28;20495;-71
2021/12/13 08:53:02;;;;;;;15.87;8.60;;;;;;;;;;5076718;28;20408;-70
2021/12/13 08:55:33;;;;;;;12.20;9.10;;;;;;;;;;5076617;28;20467;-72
2021/12/13 08:57:59;;;;;;;13.37;9.10;;;;;;;;;;5076647;28;20464;-71
2021/12/13 09:00:30;;;;;;;24.13;9.70;;;;;;;;;;5076795;28;20396;-71
2021/12/13 09:02:56;;;;;;;13.67;8.60;;;;;;;;;;5076446;28;20400;-70
2021/12/13 09:05:28;;;;;;;14.40;9.43;;;;;;;;;;5075208;28;20484;-71
2021/12/13 09:07:56;;;;;;;16.03;9.10;;;;;;;;;;5076616;28;20446;-72
2021/12/13 09:10:34;;;;;;;17.00;9.97;;;;;;;;;;5076378;28;20388;-71
2021/12/13 09:13:00;;;;;;;16.50;10.07;;;;;;;;;;5076427;28;20894;-70
2021/12/13 09:15:30;;;;;;;15.67;9.30;;;;;;;;;;5076433;28;20396;-70
2021/12/13 09:17:57;;;;;;;14.73;9.87;;;;;;;;;;5075156;28;20830;-68
2021/12/13 09:20:28;;;;;;;19.77;10.40;;;;;;;;;;5076309;28;20408;-69
2021/12/13 09:22:56;;;;;;;20.00;11.37;;;;;;;;;;5076273;28;20786;-70
2021/12/13 09:25:25;;;;;;;19.30;10.20;;;;;;;;;;5075093;28;20432;-70
2021/12/13 09:27:56;;;;;;;18.57;9.83;;;;;;;;;;5075428;28;20482;-70
2021/12/13 09:30:26;;;;;;;18.20;9.90;;;;;;;;;;5076377;28;20447;-68
2021/12/13 09:33:00;;;;;;;17.00;10.03;;;;;;;;;;5076344;28;20986;-70
2021/12/13 09:35:29;;;;;;;15.90;9.97;;;;;;;;;;5076313;28;20888;-70
2021/12/13 09:37:57;;;;;;;19.00;9.60;;;;;;;;;;5076218;28;20468;-70
2021/12/13 09:40:34;;;;;;;15.87;9.03;;;;;;;;;;5076563;28;20464;-70
2021/12/13 09:43:00;;;;;;;17.67;9.70;;;;;;;;;;5076511;28;20416;-69
2021/12/13 09:45:33;;;;;;;17.03;9.90;;;;;;;;;;5076401;28;20876;-69
2021/12/13 09:48:11;;;;;;;16.00;8.60;;;;;;;;;;5076221;28;20465;-68
2021/12/13 09:50:37;;;;;;;16.00;9.90;;;;;;;;;;5076082;28;20389;-70
2021/12/13 09:53:09;;;;;;;14.87;8.43;;;;;;;;;;5074322;28;20433;-70
2021/12/13 09:55:39;;;;;;;23.87;7.80;;;;;;;;;;5075430;28;20490;-69
2021/12/13 09:58:10;;;;;;;13.93;7.77;;;;;;;;;;5075568;28;20491;-70
2021/12/13 10:00:38;;;;;;;13.07;8.13;;;;;;;;;;5075541;28;20405;-70
2021/12/13 10:03:06;;;;;;;13.10;8.10;;;;;;;;;;5075378;28;20758;-71
2021/12/13 10:05:37;;;;;;;23.03;8.70;;;;;;;;;;5074178;28;20421;-69
2021/12/13 10:08:06;;;;;;;27.60;8.63;;;;;;;;;;5073883;28;20435;-71
2021/12/13 10:10:41;;;;;;;11.70;7.70;;;;;;;;;;5075146;28;20752;-70
2021/12/13 10:13:14;;;;;;;20.10;8.60;;;;;;;;;;5075128;28;20420;-70
2021/12/13 10:15:52;;;;;;;15.70;7.97;;;;;;;;;;5075318;28;20550;-68
2021/12/13 10:18:20;;;;;;;13.50;7.43;;;;;;;;;;5073817;28;20841;-68
2021/12/13 10:20:52;;;;;;;10.70;7.13;;;;;;;;;;5075179;28;20400;-70
2021/12/13 10:23:20;;;;;;;14.40;7.70;;;;;;;;;;5075048;28;20412;-71
2021/12/13 10:25:48;;;;;;;15.37;6.63;;;;;;;;;;5075057;28;20778;-71
2021/12/13 10:28:16;;;;;;;11.33;7.03;;;;;;;;;;5075127;28;20415;-71
2021/12/13 10:30:45;;;;;;;12.40;6.60;;;;;;;;;;5073603;28;20492;-69
2021/12/13 10:33:11;;;;;;;18.80;6.77;;;;;;;;;;5074878;28;20888;-71
2021/12/13 10:35:39;;;;;;;13.63;6.60;;;;;;;;;;5074849;28;20417;-68
2021/12/13 10:38:08;;;;;;;11.47;6.00;;;;;;;;;;5074674;28;20479;-70
2021/12/13 10:40:34;;;;;;;13.03;6.17;;;;;;;;;;5074846;28;20423;-72
2021/12/13 10:43:02;;;;;;;12.27;5.37;;;;;;;;;;5074700;28;20994;-72
2021/12/13 10:45:34;;;;;;;8.13;5.53;;;;;;;;;;5073498;28;20500;-71
2021/12/13 10:48:02;;;;;;;11.43;6.87;;;;;;;;;;5074696;28;20892;-69
2021/12/13 10:50:32;;;;;;;9.50;6.00;;;;;;;;;;5073556;28;20408;-71
2021/12/13 10:52:58;;;;;;;8.33;4.87;;;;;;;;;;5074614;28;20409;-71
2021/12/13 10:55:27;;;;;;;11.77;4.90;;;;;;;;;;5074487;28;20978;-68
2021/12/13 10:57:53;;;;;;;12.83;5.40;;;;;;;;;;5074650;28;20493;-69
2021/12/13 11:00:21;;;;;;;9.03;5.00;;;;;;;;;;5074586;28;20426;-69
2021/12/13 11:02:52;;;;;;;8.87;5.07;;;;;;;;;;5074368;28;20444;-68
2021/12/13 11:05:19;;;;;;;10.10;5.60;;;;;;;;;;5074043;28;20401;-68
2021/12/13 11:07:46;;;;;;;8.27;4.47;;;;;;;;;;5074405;28;20409;-71
2021/12/13 11:10:15;;;;;;;8.30;6.27;;;;;;;;;;5074105;28;20397;-70
2021/12/13 11:12:44;;;;;;;8.13;5.80;;;;;;;;;;5073845;28;20425;-70
2021/12/13 11:15:12;;;;;;;12.50;6.30;;;;;;;;;;5074444;28;20440;-69
2021/12/13 11:17:39;;;;;;;9.63;6.03;;;;;;;;;;5074346;28;20529;-70
2021/12/13 11:20:32;;;;;;;8.90;5.10;;;;;;;;;;5074417;28;20900;-69
2021/12/13 11:22:59;;;;;;;6.80;4.20;;;;;;;;;;5068951;28;20413;-71
2021/12/13 11:25:28;;;;;;;4.60;3.80;;;;;;;;;;5074448;28;20393;-71
2021/12/13 11:27:54;;;;;;;6.30;3.90;;;;;;;;;;5074593;28;20417;-72
2021/12/13 11:30:22;;;;;;;3.97;3.23;;;;;;;;;;5074494;28;20888;-69
2021/12/13 11:33:09;;;;;;;6.93;4.10;;;;;;;;;;5074159;28;20887;-71
2021/12/13 11:35:54;;;;;;;4.77;4.27;;;;;;;;;;5033873;28;20409;-72
2021/12/13 11:38:26;;;;;;;5.80;4.70;;;;;;;;;;5073526;28;20974;-71
2021/12/13 11:41:04;;;;;;;5.83;4.70;;;;;;;;;;5073509;28;20916;-72
2021/12/13 11:43:36;;;;;;;7.33;4.30;;;;;;;;;;5073445;28;20468;-71
2021/12/13 11:46:23;;;;;;;5.90;4.53;;;;;;;;;;5073421;28;20400;-71
2021/12/13 11:49:07;;;;;;;7.77;5.20;;;;;;;;;;5073416;28;20404;-72
2021/12/13 11:51:56;;;;;;;7.63;5.60;;;;;;;;;;5073517;28;20468;-71
2021/12/13 11:54:40;;;;;;;8.33;5.60;;;;;;;;;;5073418;28;20416;-70
2021/12/13 11:57:25;;;;;;;6.83;5.00;;;;;;;;;;5073188;28;20455;-70
2021/12/13 11:59:57;;;;;;;5.83;5.00;;;;;;;;;;5072146;28;20471;-69
2021/12/13 12:02:43;;;;;;;7.30;5.03;;;;;;;;;;5073423;28;20416;-71
2021/12/13 12:05:12;;;;;;;6.17;4.00;;;;;;;;;;5022235;28;20924;-71
2021/12/13 12:07:41;;;;;;;6.17;3.27;;;;;;;;;;5073321;28;20412;-72
2021/12/13 12:10:40;;;;;;;3.63;2.33;;;;;;;;;;5071855;28;20508;-68
2021/12/13 12:13:28;;;;;;;2.30;1.87;;;;;;;;;;5028944;28;20437;-71
2021/12/13 12:16:00;;;;;;;4.10;2.67;;;;;;;;;;5072653;28;20559;-70
2021/12/13 12:18:27;;;;;;;3.43;2.63;;;;;;;;;;5073139;28;20521;-71
2021/12/13 12:21:13;;;;;;;3.60;3.30;;;;;;;;;;5073130;28;20409;-68
2021/12/13 12:23:42;;;;;;;5.43;3.80;;;;;;;;;;5072976;28;20426;-72
2021/12/13 12:26:08;;;;;;;10.97;8.63;;;;;;;;;;5071874;28;20444;-72
2021/12/13 12:28:35;;;;;;;15.27;8.00;;;;;;;;;;5073035;28;20417;-71
2021/12/13 12:31:02;;;;;;;16.60;9.20;;;;;;;;;;5071907;28;20759;-70
2021/12/13 12:33:33;;;;;;;12.93;8.23;;;;;;;;;;5073123;28;20414;-73
2021/12/13 12:36:02;;;;;;;11.13;8.07;;;;;;;;;;5071859;28;20397;-71
2021/12/13 12:38:34;;;;;;;19.57;10.47;;;;;;;;;;5073035;28;20471;-72
2021/12/13 12:41:06;;;;;;;13.13;8.73;;;;;;;;;;5072996;28;20798;-72
2021/12/13 12:43:36;;;;;;;13.97;8.23;;;;;;;;;;5072877;28;20412;-72
2021/12/13 12:46:06;;;;;;;15.73;9.37;;;;;;;;;;5073043;28;20444;-71
2021/12/13 12:48:33;;;;;;;14.97;8.90;;;;;;;;;;5071876;28;20440;-70
2021/12/13 12:51:03;;;;;;;19.90;11.20;;;;;;;;;;5072830;28;20900;-71
2021/12/13 12:53:29;;;;;;;22.10;10.87;;;;;;;;;;5072862;28;20407;-72
2021/12/13 12:55:57;;;;;;;16.23;9.43;;;;;;;;;;5072514;28;20456;-71
2021/12/13 12:58:25;;;;;;;11.37;8.20;;;;;;;;;;5071732;28;20872;-72
2021/12/13 13:00:52;;;;;;;14.67;8.50;;;;;;;;;;5072732;28;20409;-70
2021/12/13 13:03:28;;;;;;;16.67;9.23;;;;;;;;;;5071193;28;20419;-71
2021/12/13 13:06:01;;;;;;;17.03;9.07;;;;;;;;;;5072577;28;20411;-71
2021/12/13 13:08:35;;;;;;;16.10;8.90;;;;;;;;;;5072889;28;20385;-71
2021/12/13 13:13:44;;;;;;;13.97;8.90;;;;;;;;;;5072990;28;20405;-71
2021/12/13 13:16:10;;;;;;;12.80;9.10;;;;;;;;;;5073108;28;20899;-70
2021/12/13 13:18:39;;;;;;;20.10;9.80;;;;;;;;;;5072819;28;20467;-72
2021/12/13 13:21:06;;;;;;;22.83;10.20;;;;;;;;;;5072582;28;20408;-71
2021/12/13 13:23:40;;;;;;;14.93;9.87;;;;;;;;;;5072481;28;20401;-71
2021/12/13 13:26:06;;;;;;;14.10;9.47;;;;;;;;;;5072673;28;20401;-73
2021/12/13 13:28:36;;;;;;;15.87;9.17;;;;;;;;;;5074546;28;20396;-73
2021/12/13 13:31:11;;;;;;;18.93;9.57;;;;;;;;;;5075942;28;20415;-68
2021/12/13 13:33:41;;;;;;;12.77;9.80;;;;;;;;;;5075909;28;20816;-70
2021/12/13 13:36:08;;;;;;;14.30;8.97;;;;;;;;;;5076085;28;20404;-70
2021/12/13 13:38:35;;;;;;;14.17;9.43;;;;;;;;;;5075908;28;20470;-70
2021/12/13 13:41:01;;;;;;;14.27;8.10;;;;;;;;;;5075773;28;20852;-71
2021/12/13 13:43:31;;;;;;;14.73;7.90;;;;;;;;;;5075675;28;20519;-70
2021/12/13 13:45:57;;;;;;;13.97;7.70;;;;;;;;;;5075800;28;20440;-69
2021/12/13 13:48:28;;;;;;;13.03;7.70;;;;;;;;;;5075795;28;20435;-70
2021/12/13 13:50:56;;;;;;;14.73;8.40;;;;;;;;;;5074332;28;20427;-70
2021/12/13 13:53:28;;;;;;;16.20;8.50;;;;;;;;;;5075671;28;20478;-70
2021/12/13 13:55:57;;;;;;;14.90;8.67;;;;;;;;;;5075446;28;20544;-71
2021/12/13 13:58:23;;;;;;;20.30;8.10;;;;;;;;;;5075532;28;20471;-71
2021/12/13 14:00:54;;;;;;;12.97;8.20;;;;;;;;;;5075558;28;20493;-69
2021/12/13 14:03:24;;;;;;;16.43;8.47;;;;;;;;;;5075438;28;20393;-69
2021/12/13 14:05:54;;;;;;;13.57;8.37;;;;;;;;;;5075519;28;20401;-72
2021/12/13 14:08:24;;;;;;;12.80;8.67;;;;;;;;;;5075385;28;20428;-69
2021/12/13 14:10:50;;;;;;;10.90;8.30;;;;;;;;;;5075381;28;20451;-70
2021/12/13 14:13:17;;;;;;;16.30;9.20;;;;;;;;;;5075121;28;20429;-70
2021/12/13 14:15:46;;;;;;;12.67;8.90;;;;;;;;;;5073967;28;20417;-70
2021/12/13 14:18:15;;;;;;;13.20;8.30;;;;;;;;;;5075087;28;20460;-72
2021/12/13 14:20:43;;;;;;;13.13;8.50;;;;;;;;;;5075201;28;20408;-72
2021/12/13 14:23:12;;;;;;;15.33;8.07;;;;;;;;;;5075068;28;20444;-71
2021/12/13 14:25:40;;;;;;;13.67;9.10;;;;;;;;;;5075117;28;20740;-71
2021/12/13 14:28:07;;;;;;;12.10;8.70;;;;;;;;;;5075224;28;20419;-71
2021/12/13 14:30:39;;;;;;;11.83;8.50;;;;;;;;;;5073630;28;20801;-72
2021/12/13 14:33:20;;;;;;;11.53;8.30;;;;;;;;;;5074957;28;20444;-72
2021/12/13 14:35:46;;;;;;;11.13;8.17;;;;;;;;;;5074986;28;20393;-71
2021/12/13 14:38:12;;;;;;;11.90;7.53;;;;;;;;;;5074970;28;20508;-72
2021/12/13 14:40:46;;;;;;;8.47;5.80;;;;;;;;;;5074102;28;20442;-70
2021/12/13 14:43:16;;;;;;;8.10;6.70;;;;;;;;;;5074737;28;20446;-69
2021/12/13 14:45:42;;;;;;;8.87;7.20;;;;;;;;;;5074781;28;20420;-72
2021/12/13 14:48:08;;;;;;;10.17;5.77;;;;;;;;;;5074937;28;20405;-69
2021/12/13 14:50:34;;;;;;;7.00;5.70;;;;;;;;;;5074648;28;20417;-71
2021/12/13 14:53:05;;;;;;;5.40;4.00;;;;;;;;;;5074902;28;20438;-71
2021/12/13 14:55:41;;;;;;;4.73;4.20;;;;;;;;;;5073391;28;20540;-72
2021/12/13 14:58:09;;;;;;;4.23;3.83;;;;;;;;;;5074735;28;20505;-71
2021/12/13 15:00:40;;;;;;;4.70;4.10;;;;;;;;;;5074739;28;20471;-71
2021/12/13 15:03:12;;;;;;;6.33;3.90;;;;;;;;;;5074295;28;20463;-69
2021/12/13 15:05:41;;;;;;;2.80;2.57;;;;;;;;;;5074427;28;20479;-71
2021/12/13 15:08:09;;;;;;;3.07;2.77;;;;;;;;;;5074245;28;20454;-70